createdAt,value
2022-12-29T00:01:03.730Z,3.95
2022-12-29T00:03:31.808Z,3.17
2022-12-29T00:06:01.968Z,2.65
2022-12-29T00:08:41.977Z,2.65
2022-12-29T00:11:16.265Z,4.70
2022-12-29T00:14:03.156Z,6.62
2022-12-29T00:16:32.649Z,7.30
2022-12-29T00:19:01.245Z,5.98
2022-12-29T00:21:48.204Z,4.77
2022-12-29T00:24:27.493Z,3.81
2022-12-29T00:27:23.109Z,3.17
2022-12-29T00:30:09.800Z,2.74
2022-12-29T00:32:56.237Z,3.03
2022-12-29T00:35:24.360Z,5.31
2022-12-29T00:38:11.827Z,7.03
2022-12-29T00:40:58.280Z,7.61
2022-12-29T00:43:44.668Z,6.30
2022-12-29T00:46:19.709Z,5.20
2022-12-29T00:49:06.472Z,4.55
2022-12-29T00:51:34.474Z,4.05
2022-12-29T00:54:02.366Z,3.72
2022-12-29T00:56:30.434Z,3.41
2022-12-29T00:59:06.263Z,3.13
2022-12-29T01:01:36.086Z,3.32
2022-12-29T01:04:05.467Z,5.31
2022-12-29T01:06:34.149Z,7.06
2022-12-29T01:09:20.532Z,7.68
2022-12-29T01:12:45.803Z,6.31
2022-12-29T01:15:32.307Z,4.71
2022-12-29T01:18:00.276Z,4.04
2022-12-29T01:20:29.740Z,3.55
2022-12-29T01:22:58.309Z,3.13
2022-12-29T01:25:26.548Z,3.34
2022-12-29T01:27:54.505Z,5.44
2022-12-29T01:30:22.493Z,7.28
2022-12-29T01:32:50.465Z,7.91
2022-12-29T01:35:20.468Z,6.75
2022-12-29T01:37:48.474Z,5.70
2022-12-29T01:40:16.705Z,5.04
2022-12-29T01:42:46.120Z,4.57
2022-12-29T01:45:16.573Z,4.18
2022-12-29T01:47:51.378Z,3.91
2022-12-29T01:50:41.041Z,3.73
2022-12-29T01:53:16.856Z,3.58
2022-12-29T01:55:59.701Z,3.92
2022-12-29T01:58:35.039Z,6.34
2022-12-29T02:01:03.766Z,8.20
2022-12-29T02:03:33.709Z,8.85
2022-12-29T02:06:04.946Z,7.73
2022-12-29T02:08:32.953Z,6.56
2022-12-29T02:11:02.131Z,5.80
2022-12-29T02:13:30.966Z,5.26
2022-12-29T02:16:14.261Z,4.81
2022-12-29T02:18:56.154Z,4.41
2022-12-29T02:22:02.152Z,4.09
2022-12-29T02:24:44.773Z,3.75
2022-12-29T02:27:53.411Z,4.03
2022-12-29T02:30:31.351Z,6.41
2022-12-29T02:33:00.291Z,7.65
2022-12-29T02:35:50.039Z,6.82
2022-12-29T02:38:43.702Z,5.54
2022-12-29T02:41:24.922Z,4.64
2022-12-29T02:44:10.769Z,4.08
2022-12-29T02:46:52.776Z,3.63
2022-12-29T02:49:33.708Z,3.33
2022-12-29T02:52:07.953Z,3.66
2022-12-29T02:54:42.723Z,5.89
2022-12-29T02:57:30.724Z,7.76
2022-12-29T03:00:18.069Z,8.29
2022-12-29T03:02:56.863Z,6.89
2022-12-29T03:06:17.619Z,5.70
2022-12-29T03:09:00.295Z,4.67
2022-12-29T03:11:56.659Z,4.02
2022-12-29T03:14:43.575Z,4.99
2022-12-29T03:17:54.550Z,6.96
2022-12-29T03:20:28.501Z,7.28
2022-12-29T03:23:04.331Z,5.87
2022-12-29T03:25:41.269Z,4.68
2022-12-29T03:28:17.951Z,3.88
2022-12-29T03:30:48.285Z,3.37
2022-12-29T03:33:21.850Z,3.95
2022-12-29T03:35:53.500Z,5.68
2022-12-29T03:38:35.495Z,7.03
2022-12-29T03:41:08.978Z,7.42
2022-12-29T03:43:39.354Z,6.14
2022-12-29T03:46:07.343Z,5.05
2022-12-29T03:48:35.754Z,4.36
2022-12-29T03:51:05.102Z,3.90
2022-12-29T03:53:33.326Z,4.46
2022-12-29T03:56:01.901Z,5.84
2022-12-29T03:58:30.739Z,5.69
2022-12-29T04:01:11.047Z,4.73
2022-12-29T04:03:39.761Z,4.03
2022-12-29T04:06:08.743Z,3.56
2022-12-29T04:08:54.941Z,3.17
2022-12-29T04:11:25.189Z,3.25
2022-12-29T04:13:56.581Z,5.09
2022-12-29T04:16:26.516Z,6.92
2022-12-29T04:18:54.527Z,7.75
2022-12-29T04:21:22.459Z,6.75
2022-12-29T04:23:50.392Z,5.61
2022-12-29T04:26:18.732Z,4.78
2022-12-29T04:28:59.732Z,4.01
2022-12-29T04:31:44.655Z,4.02
2022-12-29T04:34:13.132Z,5.78
2022-12-29T04:36:41.109Z,7.29
2022-12-29T04:39:09.702Z,7.75
2022-12-29T04:41:39.574Z,6.56
2022-12-29T04:44:09.695Z,5.28
2022-12-29T04:46:40.503Z,4.31
2022-12-29T04:49:28.756Z,3.55
2022-12-29T04:52:16.991Z,2.99
2022-12-29T04:54:47.338Z,2.94
2022-12-29T04:57:19.529Z,4.71
2022-12-29T04:59:52.065Z,6.19
2022-12-29T05:02:20.251Z,6.23
2022-12-29T05:04:51.109Z,5.02
2022-12-29T05:07:20.186Z,3.97
2022-12-29T05:09:49.900Z,3.22
2022-12-29T05:12:18.013Z,3.00
2022-12-29T05:15:00.181Z,4.46
2022-12-29T05:18:24.474Z,5.57
2022-12-29T05:21:10.493Z,4.91
2022-12-29T05:23:39.373Z,3.98
2022-12-29T05:26:08.062Z,3.33
2022-12-29T05:29:08.419Z,2.79
2022-12-29T05:31:36.808Z,2.84
2022-12-29T05:34:06.338Z,4.60
2022-12-29T05:36:37.652Z,6.32
2022-12-29T05:39:08.771Z,7.39
2022-12-29T05:41:37.475Z,7.61
2022-12-29T05:44:17.387Z,6.21
2022-12-29T05:46:54.823Z,4.92
2022-12-29T05:49:47.157Z,3.90
2022-12-29T05:53:24.526Z,3.14
2022-12-29T05:55:52.717Z,3.22
2022-12-29T05:58:22.019Z,5.16
2022-12-29T06:00:50.096Z,6.48
2022-12-29T06:03:18.757Z,6.38
2022-12-29T06:05:47.550Z,5.25
2022-12-29T06:08:17.169Z,4.09
2022-12-29T06:10:45.727Z,3.23
2022-12-29T06:13:13.730Z,2.93
2022-12-29T06:15:44.908Z,4.37
2022-12-29T06:18:19.701Z,5.84
2022-12-29T06:20:49.496Z,6.82
2022-12-29T06:23:19.756Z,6.80
2022-12-29T06:25:49.754Z,5.43
2022-12-29T06:28:22.487Z,4.18
2022-12-29T06:30:50.719Z,3.31
2022-12-29T06:33:22.076Z,2.72
2022-12-29T06:35:50.673Z,2.65
2022-12-29T06:38:18.702Z,4.35
2022-12-29T06:40:47.039Z,5.93
2022-12-29T06:43:34.891Z,6.55
2022-12-29T06:46:25.074Z,5.49
2022-12-29T06:48:53.057Z,4.30
2022-12-29T06:51:21.084Z,3.43
2022-12-29T06:53:49.158Z,3.54
2022-12-29T06:56:17.159Z,4.71
2022-12-29T06:58:45.195Z,5.56
2022-12-29T07:01:13.223Z,6.06
2022-12-29T07:03:45.371Z,5.12
2022-12-29T07:06:13.337Z,4.15
2022-12-29T07:08:41.488Z,3.52
2022-12-29T07:11:09.885Z,3.48
2022-12-29T07:13:38.123Z,5.36
2022-12-29T07:16:08.007Z,7.24
2022-12-29T07:18:36.610Z,8.11
2022-12-29T07:21:05.079Z,7.21
2022-12-29T07:23:33.146Z,6.14
2022-12-29T07:26:13.459Z,5.46
2022-12-29T07:28:42.868Z,4.98
2022-12-29T07:31:16.936Z,4.89
2022-12-29T07:33:45.807Z,6.45
2022-12-29T07:36:15.277Z,8.06
2022-12-29T07:38:44.468Z,8.70
2022-12-29T07:41:13.847Z,7.83
2022-12-29T07:43:42.973Z,6.90
2022-12-29T07:46:54.252Z,6.22
2022-12-29T07:49:17.876Z,5.79
2022-12-29T07:51:45.828Z,5.51
2022-12-29T07:54:13.936Z,5.29
2022-12-29T07:56:41.893Z,5.09
2022-12-29T07:59:09.890Z,5.15
2022-12-29T08:01:38.223Z,6.50
2022-12-29T08:04:06.782Z,7.58
2022-12-29T08:06:35.072Z,6.94
2022-12-29T08:09:11.340Z,5.95
2022-12-29T08:11:43.885Z,5.27
2022-12-29T08:14:12.304Z,4.92
2022-12-29T08:16:40.651Z,5.01
2022-12-29T08:19:11.168Z,6.61
2022-12-29T08:21:39.565Z,8.18
2022-12-29T08:24:10.294Z,8.71
2022-12-29T08:26:38.447Z,7.98
2022-12-29T08:29:06.388Z,7.26
2022-12-29T08:31:34.402Z,6.81
2022-12-29T08:34:04.333Z,6.56
2022-12-29T08:36:32.792Z,6.40
2022-12-29T08:39:00.767Z,6.30
2022-12-29T08:41:28.853Z,6.24
2022-12-29T08:43:58.914Z,6.21
2022-12-29T08:46:28.097Z,6.18
2022-12-29T08:48:56.063Z,6.16
2022-12-29T08:51:25.093Z,6.16
2022-12-29T08:53:53.702Z,6.17
2022-12-29T08:56:22.411Z,6.17
2022-12-29T08:58:53.445Z,6.19
2022-12-29T09:01:23.296Z,6.21
2022-12-29T09:04:14.055Z,6.24
2022-12-29T09:06:40.906Z,6.27
2022-12-29T09:09:09.140Z,6.31
2022-12-29T09:11:37.135Z,6.37
2022-12-29T09:14:05.634Z,6.42
2022-12-29T09:16:34.635Z,6.50
2022-12-29T09:19:03.408Z,6.59
2022-12-29T09:21:31.870Z,6.71
2022-12-29T09:24:00.194Z,6.80
2022-12-29T09:26:28.120Z,6.88
2022-12-29T09:28:56.177Z,6.97
2022-12-29T09:31:24.194Z,7.07
2022-12-29T09:33:52.215Z,7.18
2022-12-29T09:36:20.230Z,7.28
2022-12-29T09:38:48.336Z,7.37
2022-12-29T09:41:30.868Z,7.46
2022-12-29T09:44:04.709Z,7.54
2022-12-29T09:46:41.251Z,7.62
2022-12-29T09:49:22.249Z,7.70
2022-12-29T09:51:54.239Z,7.79
2022-12-29T09:54:33.967Z,7.88
2022-12-29T09:57:02.125Z,7.96
2022-12-29T09:59:46.191Z,8.05
2022-12-29T10:02:25.028Z,8.16
2022-12-29T10:04:53.279Z,8.28
2022-12-29T10:08:03.694Z,8.40
2022-12-29T10:10:49.704Z,8.57
2022-12-29T10:13:48.196Z,8.74
2022-12-29T10:16:21.289Z,8.91
2022-12-29T10:19:06.280Z,9.00
2022-12-29T10:21:56.654Z,9.06
2022-12-29T10:24:27.766Z,9.07
2022-12-29T10:26:59.704Z,9.10
2022-12-29T10:29:40.814Z,9.11
2022-12-29T10:32:44.260Z,9.14
2022-12-29T10:35:20.275Z,9.16
2022-12-29T10:37:56.613Z,9.17
2022-12-29T10:40:30.938Z,9.19
2022-12-29T10:43:00.113Z,9.22
2022-12-29T10:45:31.692Z,9.23
2022-12-29T10:48:12.982Z,9.23
2022-12-29T10:50:44.117Z,9.25
2022-12-29T10:53:20.576Z,9.27
2022-12-29T10:55:48.691Z,9.29
2022-12-29T10:58:17.276Z,9.35
2022-12-29T11:00:54.657Z,9.48
2022-12-29T11:03:34.340Z,9.70
2022-12-29T11:06:10.083Z,9.95
2022-12-29T11:08:52.118Z,10.15
2022-12-29T11:11:27.263Z,10.29
2022-12-29T11:14:04.236Z,10.33
2022-12-29T11:16:35.353Z,10.29
2022-12-29T11:19:04.005Z,10.23
2022-12-29T11:21:34.365Z,10.17
2022-12-29T11:24:05.220Z,10.12
2022-12-29T11:26:35.255Z,10.08
2022-12-29T11:29:09.750Z,10.04
2022-12-29T11:31:42.583Z,9.96
2022-12-29T11:34:18.364Z,9.92
2022-12-29T11:36:47.457Z,9.91
2022-12-29T11:39:30.310Z,9.88
2022-12-29T11:41:59.317Z,9.80
2022-12-29T11:44:28.166Z,9.76
2022-12-29T11:46:56.301Z,9.74
2022-12-29T11:49:27.275Z,9.74
2022-12-29T11:51:58.635Z,9.75
2022-12-29T11:54:37.412Z,9.78
2022-12-29T11:57:17.211Z,9.84
2022-12-29T11:59:56.516Z,9.88
2022-12-29T12:02:45.564Z,9.94
2022-12-29T12:05:37.729Z,9.97
2022-12-29T12:08:26.159Z,10.03
2022-12-29T12:11:05.404Z,10.09
2022-12-29T12:13:44.675Z,10.14
2022-12-29T12:16:25.698Z,10.16
2022-12-29T12:18:56.437Z,10.14
2022-12-29T12:21:45.516Z,10.13
2022-12-29T12:24:32.169Z,10.13
2022-12-29T12:27:20.432Z,10.13
2022-12-29T12:30:04.146Z,10.13
2022-12-29T12:33:03.502Z,10.11
2022-12-29T12:35:45.254Z,10.09
2022-12-29T12:39:06.602Z,10.07
2022-12-29T12:41:46.938Z,10.02
2022-12-29T12:44:36.522Z,10.00
2022-12-29T12:47:04.502Z,10.01
2022-12-29T12:49:35.330Z,10.01
2022-12-29T12:52:14.517Z,10.03
2022-12-29T12:54:42.380Z,10.03
2022-12-29T12:57:34.210Z,10.06
2022-12-29T13:00:13.710Z,10.16
2022-12-29T13:03:00.905Z,10.25
2022-12-29T13:05:44.272Z,10.61
2022-12-29T13:08:39.098Z,11.24
2022-12-29T13:12:01.605Z,11.19
2022-12-29T13:14:43.703Z,10.86
2022-12-29T13:17:41.173Z,10.59
2022-12-29T13:20:27.761Z,10.43
2022-12-29T13:24:15.505Z,10.38
2022-12-29T13:26:46.221Z,10.29
2022-12-29T13:29:21.379Z,10.20
2022-12-29T13:32:13.752Z,10.12
2022-12-29T13:34:47.706Z,10.07
2022-12-29T13:37:26.985Z,10.05
2022-12-29T13:40:11.095Z,10.07
2022-12-29T13:42:39.563Z,10.18
2022-12-29T13:45:14.535Z,10.27
2022-12-29T13:48:05.555Z,10.27
2022-12-29T13:50:41.099Z,10.29
2022-12-29T13:53:31.600Z,10.35
2022-12-29T13:56:13.984Z,10.60
2022-12-29T13:58:51.579Z,10.92
2022-12-29T14:01:44.822Z,10.93
2022-12-29T14:04:24.401Z,11.18
2022-12-29T14:07:17.961Z,11.10
2022-12-29T14:09:52.876Z,10.75
2022-12-29T14:12:42.226Z,10.45
2022-12-29T14:15:10.282Z,10.17
2022-12-29T14:17:45.217Z,9.99
2022-12-29T14:20:24.392Z,9.96
2022-12-29T14:23:10.391Z,10.23
2022-12-29T14:26:01.522Z,10.68
2022-12-29T14:28:34.704Z,10.99
2022-12-29T14:31:26.698Z,10.77
2022-12-29T14:34:14.880Z,10.32
2022-12-29T14:37:03.834Z,9.98
2022-12-29T14:39:36.800Z,9.68
2022-12-29T14:42:15.367Z,9.44
2022-12-29T14:45:25.984Z,9.24
2022-12-29T14:47:55.172Z,9.06
2022-12-29T14:50:24.186Z,8.91
2022-12-29T14:53:03.956Z,8.76
2022-12-29T14:55:41.045Z,8.63
2022-12-29T14:58:29.595Z,8.49
2022-12-29T15:00:59.175Z,8.36
2022-12-29T15:03:34.148Z,8.24
2022-12-29T15:06:10.666Z,8.12
2022-12-29T15:08:51.021Z,8.00
2022-12-29T15:11:42.245Z,7.87
2022-12-29T15:14:40.711Z,7.73
2022-12-29T15:17:25.265Z,7.57
2022-12-29T15:19:54.545Z,7.42
2022-12-29T15:22:23.199Z,7.28
2022-12-29T15:24:53.233Z,7.34
2022-12-29T15:27:24.126Z,8.54
2022-12-29T15:30:00.847Z,9.76
2022-12-29T15:32:39.887Z,10.59
2022-12-29T15:35:31.124Z,10.81
2022-12-29T15:38:00.446Z,9.59
2022-12-29T15:40:31.840Z,8.54
2022-12-29T15:43:12.457Z,7.77
2022-12-29T15:45:40.515Z,7.18
2022-12-29T15:48:19.478Z,6.78
2022-12-29T15:50:48.118Z,6.45
2022-12-29T15:53:25.886Z,6.47
2022-12-29T15:55:58.347Z,8.11
2022-12-29T15:58:31.582Z,9.26
2022-12-29T16:01:01.766Z,9.35
2022-12-29T16:03:34.859Z,8.42
2022-12-29T16:06:26.310Z,7.51
2022-12-29T16:09:04.940Z,6.87
2022-12-29T16:11:34.942Z,6.49
2022-12-29T16:14:08.291Z,6.51
2022-12-29T16:16:42.617Z,8.05
2022-12-29T16:19:33.816Z,9.15
2022-12-29T16:22:04.381Z,8.53
2022-12-29T16:24:33.756Z,7.55
2022-12-29T16:27:09.049Z,6.83
2022-12-29T16:29:42.295Z,6.30
2022-12-29T16:32:29.597Z,6.30
2022-12-29T16:35:20.563Z,8.02
2022-12-29T16:38:08.204Z,9.33
2022-12-29T16:40:50.026Z,10.10
2022-12-29T16:43:42.979Z,10.29
2022-12-29T16:46:28.654Z,9.13
2022-12-29T16:48:58.149Z,8.18
2022-12-29T16:51:31.644Z,7.62
2022-12-29T16:54:01.573Z,7.21
2022-12-29T16:56:33.948Z,7.16
2022-12-29T16:59:20.565Z,8.71
2022-12-29T17:01:49.219Z,10.50
2022-12-29T17:04:17.444Z,11.16
2022-12-29T17:06:45.517Z,10.24
2022-12-29T17:09:31.949Z,9.14
2022-12-29T17:12:10.721Z,8.17
2022-12-29T17:14:48.818Z,7.51
2022-12-29T17:17:32.621Z,7.48
2022-12-29T17:20:24.956Z,9.21
2022-12-29T17:22:54.227Z,9.96
2022-12-29T17:25:31.832Z,8.99
2022-12-29T17:28:05.604Z,8.06
2022-12-29T17:30:36.205Z,7.46
2022-12-29T17:33:13.940Z,7.07
2022-12-29T17:35:42.206Z,7.09
2022-12-29T17:38:31.342Z,8.77
2022-12-29T17:40:59.700Z,10.49
2022-12-29T17:43:32.990Z,10.84
2022-12-29T17:46:07.093Z,9.86
2022-12-29T17:48:38.807Z,9.00
2022-12-29T17:51:06.967Z,8.46
2022-12-29T17:53:35.192Z,8.10
2022-12-29T17:56:03.348Z,7.75
2022-12-29T17:58:33.202Z,7.79
2022-12-29T18:01:03.271Z,9.47
2022-12-29T18:03:35.061Z,10.71
2022-12-29T18:06:08.482Z,10.82
2022-12-29T18:08:38.805Z,9.64
2022-12-29T18:11:21.618Z,8.56
2022-12-29T18:13:50.189Z,7.76
2022-12-29T18:16:18.448Z,7.23
2022-12-29T18:18:51.730Z,6.82
2022-12-29T18:21:33.939Z,6.86
2022-12-29T18:24:02.442Z,8.29
2022-12-29T18:26:35.935Z,9.37
2022-12-29T18:29:03.930Z,9.56
2022-12-29T18:31:34.233Z,8.53
2022-12-29T18:34:12.800Z,7.42
2022-12-29T18:36:40.878Z,6.63
2022-12-29T18:39:08.799Z,6.35
2022-12-29T18:41:37.361Z,7.40
2022-12-29T18:44:05.583Z,8.71
2022-12-29T18:46:33.610Z,9.20
2022-12-29T18:49:01.727Z,9.11
2022-12-29T18:51:30.115Z,7.71
2022-12-29T18:54:48.567Z,6.59
2022-12-29T18:57:17.803Z,8.00
2022-12-29T18:59:46.202Z,9.17
2022-12-29T19:02:17.776Z,9.86
2022-12-29T19:04:48.925Z,9.93
2022-12-29T19:07:20.979Z,8.72
2022-12-29T19:09:48.925Z,7.69
2022-12-29T19:12:22.228Z,7.01
2022-12-29T19:14:53.234Z,6.50
2022-12-29T19:17:43.138Z,6.50
2022-12-29T19:20:26.617Z,8.41
2022-12-29T19:22:56.283Z,9.73
2022-12-29T19:25:25.139Z,10.15
2022-12-29T19:27:53.528Z,9.17
2022-12-29T19:30:21.748Z,8.14
2022-12-29T19:32:54.978Z,7.43
2022-12-29T19:35:24.417Z,6.83
2022-12-29T19:37:53.045Z,7.45
2022-12-29T19:40:23.683Z,8.92
2022-12-29T19:42:52.123Z,9.79
2022-12-29T19:45:20.926Z,10.06
2022-12-29T19:47:52.506Z,9.04
2022-12-29T19:50:25.499Z,7.93
2022-12-29T19:53:05.925Z,7.08
2022-12-29T19:55:34.498Z,6.73
2022-12-29T19:58:02.588Z,7.91
2022-12-29T20:00:30.897Z,9.08
2022-12-29T20:02:59.233Z,9.83
2022-12-29T20:05:27.496Z,10.10
2022-12-29T20:07:55.413Z,9.00
2022-12-29T20:10:23.472Z,7.92
2022-12-29T20:12:51.384Z,7.09
2022-12-29T20:15:19.982Z,7.67
2022-12-29T20:18:15.749Z,9.08
2022-12-29T20:20:36.152Z,10.14
2022-12-29T20:23:04.235Z,10.35
2022-12-29T20:25:48.629Z,9.33
2022-12-29T20:28:17.153Z,8.28
2022-12-29T20:30:45.516Z,7.66
2022-12-29T20:33:13.739Z,7.22
2022-12-29T20:35:41.721Z,6.86
2022-12-29T20:38:09.636Z,6.93
2022-12-29T20:40:44.098Z,8.69
2022-12-29T20:43:15.602Z,9.88
2022-12-29T20:45:43.796Z,9.30
2022-12-29T20:48:11.944Z,8.08
2022-12-29T20:50:40.319Z,7.18
2022-12-29T20:53:08.391Z,6.60
2022-12-29T20:55:40.827Z,6.58
2022-12-29T20:58:25.418Z,8.32
2022-12-29T21:00:54.597Z,9.67
2022-12-29T21:03:23.255Z,10.03
2022-12-29T21:05:52.688Z,9.05
2022-12-29T21:08:22.099Z,7.95
2022-12-29T21:10:51.108Z,7.19
2022-12-29T21:13:19.370Z,6.63
2022-12-29T21:15:48.110Z,6.58
2022-12-29T21:18:16.105Z,8.15
2022-12-29T21:20:44.328Z,9.26
2022-12-29T21:23:15.744Z,9.93
2022-12-29T21:25:44.171Z,10.05
2022-12-29T21:28:12.392Z,8.90
2022-12-29T21:30:40.743Z,7.78
2022-12-29T21:33:08.804Z,7.00
2022-12-29T21:35:38.884Z,6.42
2022-12-29T21:38:07.964Z,6.39
2022-12-29T21:40:37.461Z,8.11
2022-12-29T21:43:06.295Z,9.24
2022-12-29T21:45:34.489Z,8.34
2022-12-29T21:48:23.610Z,7.10
2022-12-29T21:51:12.730Z,6.14
2022-12-29T21:53:43.839Z,6.17
2022-12-29T21:56:14.734Z,8.12
2022-12-29T21:59:03.580Z,9.71
2022-12-29T22:01:53.063Z,10.11
2022-12-29T22:04:42.767Z,8.63
2022-12-29T22:07:31.383Z,7.40
2022-12-29T22:10:17.961Z,6.59
2022-12-29T22:12:57.950Z,5.94
2022-12-29T22:15:27.896Z,6.09
2022-12-29T22:17:56.220Z,7.93
2022-12-29T22:20:27.186Z,9.37
2022-12-29T22:22:55.770Z,9.58
2022-12-29T22:25:24.242Z,8.13
2022-12-29T22:27:58.541Z,6.76
2022-12-29T22:30:28.383Z,5.76
2022-12-29T22:32:59.171Z,5.57
2022-12-29T22:35:27.781Z,7.39
2022-12-29T22:37:55.740Z,8.82
2022-12-29T22:40:24.313Z,8.49
2022-12-29T22:42:52.441Z,7.18
2022-12-29T22:45:20.522Z,6.22
2022-12-29T22:47:48.427Z,6.18
2022-12-29T22:50:16.486Z,8.15
2022-12-29T22:52:44.519Z,9.85
2022-12-29T22:55:12.494Z,10.89
2022-12-29T22:57:40.593Z,11.16
2022-12-29T23:00:09.328Z,9.97
2022-12-29T23:02:37.677Z,8.80
2022-12-29T23:05:06.814Z,8.49
2022-12-29T23:07:35.891Z,10.00
2022-12-29T23:10:05.283Z,10.84
2022-12-29T23:12:33.294Z,9.73
2022-12-29T23:15:01.394Z,8.48
2022-12-29T23:17:29.418Z,7.55
2022-12-29T23:19:57.366Z,6.79
2022-12-29T23:22:25.355Z,6.13
2022-12-29T23:24:53.292Z,6.73
2022-12-29T23:27:21.198Z,8.46
2022-12-29T23:29:49.176Z,9.69
2022-12-29T23:32:17.185Z,9.73
2022-12-29T23:34:45.163Z,8.30
2022-12-29T23:37:13.265Z,6.93
2022-12-29T23:39:41.223Z,5.92
2022-12-29T23:42:09.085Z,5.67
2022-12-29T23:44:37.069Z,7.37
2022-12-29T23:47:05.052Z,8.54
2022-12-29T23:49:33.159Z,8.57
2022-12-29T23:52:01.349Z,7.44
2022-12-29T23:54:29.288Z,6.36
2022-12-29T23:56:57.345Z,5.92
2022-12-29T23:59:25.364Z,7.17
